sensor_id;sensor_type;location;lat;lon;timestamp;P1;P2;P0
34176;PMS7003;20450;49.074;9.158;2023-02-08T00:00:58;57.00;47.75;30.00
34176;PMS7003;20450;49.074;9.158;2023-02-08T00:03:25;53.50;47.00;31.75
34176;PMS7003;20450;49.074;9.158;2023-02-08T00:05:52;58.00;49.00;31.50
34176;PMS7003;20450;49.074;9.158;2023-02-08T00:08:19;51.50;40.50;28.00
34176;PMS7003;20450;49.074;9.158;2023-02-08T00:10:46;39.75;37.25;27.50
34176;PMS7003;20450;49.074;9.158;2023-02-08T00:13:13;55.25;46.50;32.00
34176;PMS7003;20450;49.074;9.158;2023-02-08T00:15:41;54.75;47.00;34.50
34176;PMS7003;20450;49.074;9.158;2023-02-08T00:18:10;58.75;49.75;37.00
34176;PMS7003;20450;49.074;9.158;2023-02-08T00:20:37;59.75;49.50;36.25
34176;PMS7003;20450;49.074;9.158;2023-02-08T00:23:06;60.50;50.75;36.00
34176;PMS7003;20450;49.074;9.158;2023-02-08T00:25:33;61.00;51.00;35.75
34176;PMS7003;20450;49.074;9.158;2023-02-08T00:28:00;55.50;46.50;32.50
34176;PMS7003;20450;49.074;9.158;2023-02-08T00:30:30;63.75;52.75;37.75
34176;PMS7003;20450;49.074;9.158;2023-02-08T00:32:59;61.00;50.00;33.50
34176;PMS7003;20450;49.074;9.158;2023-02-08T00:35:27;56.50;48.50;33.75
34176;PMS7003;20450;49.074;9.158;2023-02-08T00:37:54;60.75;49.00;34.00
34176;PMS7003;20450;49.074;9.158;2023-02-08T00:40:21;53.25;44.25;32.25
34176;PMS7003;20450;49.074;9.158;2023-02-08T00:42:48;51.00;42.75;29.00
34176;PMS7003;20450;49.074;9.158;2023-02-08T00:45:15;43.75;40.25;28.50
34176;PMS7003;20450;49.074;9.158;2023-02-08T00:47:42;56.50;46.50;30.75
34176;PMS7003;20450;49.074;9.158;2023-02-08T00:50:11;56.25;47.75;32.00
34176;PMS7003;20450;49.074;9.158;2023-02-08T00:52:38;57.50;47.75;33.25
34176;PMS7003;20450;49.074;9.158;2023-02-08T00:55:05;57.75;48.50;33.25
34176;PMS7003;20450;49.074;9.158;2023-02-08T00:57:33;50.50;40.50;29.50
34176;PMS7003;20450;49.074;9.158;2023-02-08T01:00:00;47.25;41.25;27.50
34176;PMS7003;20450;49.074;9.158;2023-02-08T01:02:28;47.00;40.00;27.25
34176;PMS7003;20450;49.074;9.158;2023-02-08T01:04:55;51.00;43.75;29.75
34176;PMS7003;20450;49.074;9.158;2023-02-08T01:07:23;42.50;38.00;26.25
34176;PMS7003;20450;49.074;9.158;2023-02-08T01:09:50;43.00;37.75;26.25
34176;PMS7003;20450;49.074;9.158;2023-02-08T01:12:20;47.00;40.25;27.00
34176;PMS7003;20450;49.074;9.158;2023-02-08T01:14:47;42.50;39.25;26.00
34176;PMS7003;20450;49.074;9.158;2023-02-08T01:17:15;36.25;34.50;25.25
34176;PMS7003;20450;49.074;9.158;2023-02-08T01:19:42;37.50;37.50;25.50
34176;PMS7003;20450;49.074;9.158;2023-02-08T01:22:08;48.00;41.00;27.75
34176;PMS7003;20450;49.074;9.158;2023-02-08T01:24:37;40.75;38.00;26.00
34176;PMS7003;20450;49.074;9.158;2023-02-08T01:27:04;43.75;38.75;26.00
34176;PMS7003;20450;49.074;9.158;2023-02-08T01:29:30;38.25;37.50;26.00
34176;PMS7003;20450;49.074;9.158;2023-02-08T01:31:58;37.75;36.75;26.00
34176;PMS7003;20450;49.074;9.158;2023-02-08T01:34:28;35.25;35.25;25.75
34176;PMS7003;20450;49.074;9.158;2023-02-08T01:36:54;39.25;39.00;26.25
34176;PMS7003;20450;49.074;9.158;2023-02-08T01:39:21;43.00;38.25;26.50
34176;PMS7003;20450;49.074;9.158;2023-02-08T01:41:51;45.25;39.25;26.00
34176;PMS7003;20450;49.074;9.158;2023-02-08T01:47:54;46.50;41.75;28.00
34176;PMS7003;20450;49.074;9.158;2023-02-08T01:50:31;32.25;30.25;22.50
34176;PMS7003;20450;49.074;9.158;2023-02-08T01:53:08;45.00;41.75;27.00
34176;PMS7003;20450;49.074;9.158;2023-02-08T01:55:37;43.25;40.25;26.00
34176;PMS7003;20450;49.074;9.158;2023-02-08T01:58:13;40.25;37.00;25.00
34176;PMS7003;20450;49.074;9.158;2023-02-08T02:00:45;42.00;41.00;25.75
34176;PMS7003;20450;49.074;9.158;2023-02-08T02:03:14;40.50;38.00;24.25
34176;PMS7003;20450;49.074;9.158;2023-02-08T02:05:44;44.00;39.00;27.00
34176;PMS7003;20450;49.074;9.158;2023-02-08T02:08:16;33.75;33.75;25.00
34176;PMS7003;20450;49.074;9.158;2023-02-08T02:10:43;33.50;33.50;23.75
34176;PMS7003;20450;49.074;9.158;2023-02-08T02:13:17;44.75;39.00;26.00
34176;PMS7003;20450;49.074;9.158;2023-02-08T02:15:48;32.50;32.00;23.75
34176;PMS7003;20450;49.074;9.158;2023-02-08T02:18:17;38.75;38.00;26.75
34176;PMS7003;20450;49.074;9.158;2023-02-08T02:21:00;37.75;36.00;25.00
34176;PMS7003;20450;49.074;9.158;2023-02-08T02:33:25;42.50;38.25;26.00
34176;PMS7003;20450;49.074;9.158;2023-02-08T02:36:16;40.25;37.50;25.00
34176;PMS7003;20450;49.074;9.158;2023-02-08T02:38:56;40.75;36.50;24.75
34176;PMS7003;20450;49.074;9.158;2023-02-08T02:41:38;44.25;39.75;26.75
34176;PMS7003;20450;49.074;9.158;2023-02-08T02:44:17;48.25;43.25;27.75
34176;PMS7003;20450;49.074;9.158;2023-02-08T02:47:01;37.25;37.25;24.25
34176;PMS7003;20450;49.074;9.158;2023-02-08T02:49:41;38.50;37.00;26.00
34176;PMS7003;20450;49.074;9.158;2023-02-08T02:52:17;40.00;39.00;28.50
34176;PMS7003;20450;49.074;9.158;2023-02-08T02:54:51;40.50;39.00;26.50
34176;PMS7003;20450;49.074;9.158;2023-02-08T02:57:23;40.50;39.00;26.00
34176;PMS7003;20450;49.074;9.158;2023-02-08T02:59:57;46.00;43.00;28.00
34176;PMS7003;20450;49.074;9.158;2023-02-08T03:02:25;42.25;39.75;26.00
34176;PMS7003;20450;49.074;9.158;2023-02-08T03:04:55;45.00;39.25;26.00
34176;PMS7003;20450;49.074;9.158;2023-02-08T03:07:27;33.75;33.00;23.00
34176;PMS7003;20450;49.074;9.158;2023-02-08T03:10:46;37.50;36.50;24.25
34176;PMS7003;20450;49.074;9.158;2023-02-08T03:13:27;39.25;37.00;26.25
34176;PMS7003;20450;49.074;9.158;2023-02-08T03:16:13;36.50;30.75;21.50
34176;PMS7003;20450;49.074;9.158;2023-02-08T03:18:47;32.00;31.25;19.00
34176;PMS7003;20450;49.074;9.158;2023-02-08T03:21:33;26.00;26.00;21.75
34176;PMS7003;20450;49.074;9.158;2023-02-08T03:24:12;35.50;31.00;21.50
34176;PMS7003;20450;49.074;9.158;2023-02-08T03:26:52;37.75;34.50;26.00
34176;PMS7003;20450;49.074;9.158;2023-02-08T03:29:30;32.00;32.00;22.75
34176;PMS7003;20450;49.074;9.158;2023-02-08T03:32:13;41.00;36.50;25.25
34176;PMS7003;20450;49.074;9.158;2023-02-08T03:34:48;39.75;37.25;22.75
34176;PMS7003;20450;49.074;9.158;2023-02-08T03:37:23;43.50;39.00;25.50
34176;PMS7003;20450;49.074;9.158;2023-02-08T03:39:57;41.50;40.50;26.75
34176;PMS7003;20450;49.074;9.158;2023-02-08T03:42:32;34.75;33.25;22.75
34176;PMS7003;20450;49.074;9.158;2023-02-08T03:45:04;44.25;40.50;27.00
34176;PMS7003;20450;49.074;9.158;2023-02-08T03:47:40;38.25;36.50;25.50
34176;PMS7003;20450;49.074;9.158;2023-02-08T03:50:12;35.25;35.25;24.50
34176;PMS7003;20450;49.074;9.158;2023-02-08T03:52:44;40.00;38.75;27.25
34176;PMS7003;20450;49.074;9.158;2023-02-08T03:55:14;44.75;41.25;26.75
34176;PMS7003;20450;49.074;9.158;2023-02-08T03:57:47;43.00;40.00;27.00
34176;PMS7003;20450;49.074;9.158;2023-02-08T04:00:20;38.00;36.00;25.25
34176;PMS7003;20450;49.074;9.158;2023-02-08T04:02:51;29.75;28.25;20.00
34176;PMS7003;20450;49.074;9.158;2023-02-08T04:05:22;38.00;36.75;24.00
34176;PMS7003;20450;49.074;9.158;2023-02-08T04:07:51;36.00;34.00;26.25
34176;PMS7003;20450;49.074;9.158;2023-02-08T04:10:18;39.00;36.50;24.75
34176;PMS7003;20450;49.074;9.158;2023-02-08T04:12:46;37.75;36.50;26.25
34176;PMS7003;20450;49.074;9.158;2023-02-08T04:15:14;40.25;38.25;25.75
34176;PMS7003;20450;49.074;9.158;2023-02-08T04:17:42;29.25;27.75;21.25
34176;PMS7003;20450;49.074;9.158;2023-02-08T04:20:09;33.50;33.50;24.50
34176;PMS7003;20450;49.074;9.158;2023-02-08T04:22:37;47.25;40.25;28.75
34176;PMS7003;20450;49.074;9.158;2023-02-08T04:25:06;38.25;37.00;25.25
34176;PMS7003;20450;49.074;9.158;2023-02-08T04:27:33;37.75;37.75;25.00
34176;PMS7003;20450;49.074;9.158;2023-02-08T04:29:59;41.75;40.00;26.75
34176;PMS7003;20450;49.074;9.158;2023-02-08T04:32:26;44.75;40.50;26.50
34176;PMS7003;20450;49.074;9.158;2023-02-08T04:34:53;35.75;34.50;25.25
34176;PMS7003;20450;49.074;9.158;2023-02-08T04:37:20;42.50;40.75;26.25
34176;PMS7003;20450;49.074;9.158;2023-02-08T04:39:47;43.00;40.00;25.75
34176;PMS7003;20450;49.074;9.158;2023-02-08T04:42:15;45.25;39.75;26.50
34176;PMS7003;20450;49.074;9.158;2023-02-08T04:44:42;43.25;41.25;28.00
34176;PMS7003;20450;49.074;9.158;2023-02-08T04:47:09;44.75;39.00;26.50
34176;PMS7003;20450;49.074;9.158;2023-02-08T04:49:36;37.50;34.75;23.75
34176;PMS7003;20450;49.074;9.158;2023-02-08T04:52:03;46.25;40.00;27.00
34176;PMS7003;20450;49.074;9.158;2023-02-08T04:54:30;27.25;27.25;17.00
34176;PMS7003;20450;49.074;9.158;2023-02-08T04:56:57;40.25;39.25;27.75
34176;PMS7003;20450;49.074;9.158;2023-02-08T04:59:25;46.00;41.00;26.50
34176;PMS7003;20450;49.074;9.158;2023-02-08T05:01:53;54.75;44.00;27.25
34176;PMS7003;20450;49.074;9.158;2023-02-08T05:04:20;55.00;46.25;31.75
34176;PMS7003;20450;49.074;9.158;2023-02-08T05:06:47;45.00;41.50;29.00
34176;PMS7003;20450;49.074;9.158;2023-02-08T05:09:14;53.25;45.50;29.25
34176;PMS7003;20450;49.074;9.158;2023-02-08T05:11:41;47.75;42.75;28.25
34176;PMS7003;20450;49.074;9.158;2023-02-08T05:14:08;45.75;39.75;26.50
34176;PMS7003;20450;49.074;9.158;2023-02-08T05:16:36;44.50;40.25;27.75
34176;PMS7003;20450;49.074;9.158;2023-02-08T05:19:03;54.50;44.75;30.50
34176;PMS7003;20450;49.074;9.158;2023-02-08T05:21:30;46.00;42.50;29.25
34176;PMS7003;20450;49.074;9.158;2023-02-08T05:23:56;51.75;43.50;29.75
34176;PMS7003;20450;49.074;9.158;2023-02-08T05:26:23;50.75;43.75;28.75
34176;PMS7003;20450;49.074;9.158;2023-02-08T05:28:50;52.25;43.00;28.25
34176;PMS7003;20450;49.074;9.158;2023-02-08T05:31:18;44.50;39.00;26.50
34176;PMS7003;20450;49.074;9.158;2023-02-08T05:33:49;44.25;42.50;27.25
34176;PMS7003;20450;49.074;9.158;2023-02-08T05:36:18;34.75;34.75;23.00
34176;PMS7003;20450;49.074;9.158;2023-02-08T05:38:46;42.75;40.25;26.50
34176;PMS7003;20450;49.074;9.158;2023-02-08T05:41:13;45.75;42.25;27.50
34176;PMS7003;20450;49.074;9.158;2023-02-08T05:43:40;45.00;42.50;29.00
34176;PMS7003;20450;49.074;9.158;2023-02-08T05:46:07;60.50;48.50;31.50
34176;PMS7003;20450;49.074;9.158;2023-02-08T05:48:34;49.00;43.00;29.00
34176;PMS7003;20450;49.074;9.158;2023-02-08T05:51:02;47.25;41.50;27.75
34176;PMS7003;20450;49.074;9.158;2023-02-08T05:53:30;43.00;41.25;26.50
34176;PMS7003;20450;49.074;9.158;2023-02-08T05:55:57;41.75;39.50;25.00
34176;PMS7003;20450;49.074;9.158;2023-02-08T05:58:24;39.75;35.25;24.75
34176;PMS7003;20450;49.074;9.158;2023-02-08T06:00:51;40.25;34.50;22.50
34176;PMS7003;20450;49.074;9.158;2023-02-08T06:03:18;38.00;36.50;24.75
34176;PMS7003;20450;49.074;9.158;2023-02-08T06:05:45;40.75;39.75;25.00
34176;PMS7003;20450;49.074;9.158;2023-02-08T06:08:14;25.00;25.00;18.75
34176;PMS7003;20450;49.074;9.158;2023-02-08T06:10:41;69.50;58.25;38.50
34176;PMS7003;20450;49.074;9.158;2023-02-08T06:13:08;51.75;46.75;30.00
34176;PMS7003;20450;49.074;9.158;2023-02-08T06:15:35;38.75;37.00;24.50
34176;PMS7003;20450;49.074;9.158;2023-02-08T06:18:02;35.00;33.25;23.50
34176;PMS7003;20450;49.074;9.158;2023-02-08T06:20:29;33.50;32.50;21.50
34176;PMS7003;20450;49.074;9.158;2023-02-08T06:22:56;34.75;33.50;22.00
34176;PMS7003;20450;49.074;9.158;2023-02-08T06:25:24;25.00;23.75;13.25
34176;PMS7003;20450;49.074;9.158;2023-02-08T06:27:51;31.75;31.75;25.50
34176;PMS7003;20450;49.074;9.158;2023-02-08T06:30:18;44.00;41.00;26.50
34176;PMS7003;20450;49.074;9.158;2023-02-08T06:32:45;34.50;33.00;23.75
34176;PMS7003;20450;49.074;9.158;2023-02-08T06:35:12;37.25;35.75;26.25
34176;PMS7003;20450;49.074;9.158;2023-02-08T06:37:39;37.75;37.75;26.25
34176;PMS7003;20450;49.074;9.158;2023-02-08T06:40:07;32.25;32.25;24.75
34176;PMS7003;20450;49.074;9.158;2023-02-08T06:42:37;42.25;38.50;24.75
34176;PMS7003;20450;49.074;9.158;2023-02-08T06:45:04;39.50;38.75;28.00
34176;PMS7003;20450;49.074;9.158;2023-02-08T06:47:32;41.00;38.50;26.00
34176;PMS7003;20450;49.074;9.158;2023-02-08T06:49:59;39.25;36.25;25.50
34176;PMS7003;20450;49.074;9.158;2023-02-08T06:52:26;46.25;42.25;29.75
34176;PMS7003;20450;49.074;9.158;2023-02-08T06:54:52;43.00;41.50;29.00
34176;PMS7003;20450;49.074;9.158;2023-02-08T06:57:19;47.50;41.25;26.25
34176;PMS7003;20450;49.074;9.158;2023-02-08T06:59:47;48.50;44.75;28.00
34176;PMS7003;20450;49.074;9.158;2023-02-08T07:02:15;47.25;43.75;28.50
34176;PMS7003;20450;49.074;9.158;2023-02-08T07:04:44;42.25;38.50;27.25
34176;PMS7003;20450;49.074;9.158;2023-02-08T07:07:11;41.00;39.75;27.25
34176;PMS7003;20450;49.074;9.158;2023-02-08T07:09:39;45.50;39.25;26.50
34176;PMS7003;20450;49.074;9.158;2023-02-08T07:12:06;33.67;30.33;20.00
34176;PMS7003;20450;49.074;9.158;2023-02-08T07:14:34;41.67;36.67;25.33
34176;PMS7003;20450;49.074;9.158;2023-02-08T07:17:06;41.67;37.33;25.00
34176;PMS7003;20450;49.074;9.158;2023-02-08T07:19:34;40.00;37.00;26.33
34176;PMS7003;20450;49.074;9.158;2023-02-08T07:22:00;40.00;36.00;23.00
34176;PMS7003;20450;49.074;9.158;2023-02-08T07:24:28;41.67;36.67;26.00
34176;PMS7003;20450;49.074;9.158;2023-02-08T07:26:54;56.67;42.33;29.33
34176;PMS7003;20450;49.074;9.158;2023-02-08T07:29:21;28.25;28.25;21.50
34176;PMS7003;20450;49.074;9.158;2023-02-08T07:31:49;29.25;26.75;18.75
34176;PMS7003;20450;49.074;9.158;2023-02-08T07:34:17;31.75;31.50;22.50
34176;PMS7003;20450;49.074;9.158;2023-02-08T07:36:44;38.50;32.75;21.00
34176;PMS7003;20450;49.074;9.158;2023-02-08T07:39:10;34.50;32.50;23.00
34176;PMS7003;20450;49.074;9.158;2023-02-08T07:41:37;40.75;35.00;25.00
34176;PMS7003;20450;49.074;9.158;2023-02-08T07:44:04;34.25;32.25;21.00
34176;PMS7003;20450;49.074;9.158;2023-02-08T07:46:31;36.25;33.50;23.75
34176;PMS7003;20450;49.074;9.158;2023-02-08T07:48:58;32.25;32.00;21.25
34176;PMS7003;20450;49.074;9.158;2023-02-08T07:51:26;30.75;30.75;23.25
34176;PMS7003;20450;49.074;9.158;2023-02-08T07:53:53;38.25;32.00;22.00
34176;PMS7003;20450;49.074;9.158;2023-02-08T07:56:20;37.50;34.00;23.50
34176;PMS7003;20450;49.074;9.158;2023-02-08T07:58:47;33.75;31.50;23.00
34176;PMS7003;20450;49.074;9.158;2023-02-08T08:01:13;31.50;29.75;21.00
34176;PMS7003;20450;49.074;9.158;2023-02-08T08:03:48;35.75;30.75;22.25
34176;PMS7003;20450;49.074;9.158;2023-02-08T08:06:16;34.50;32.00;22.50
34176;PMS7003;20450;49.074;9.158;2023-02-08T08:08:44;35.00;33.00;23.00
34176;PMS7003;20450;49.074;9.158;2023-02-08T08:11:11;26.75;26.75;20.75
34176;PMS7003;20450;49.074;9.158;2023-02-08T08:13:38;30.50;30.50;22.50
34176;PMS7003;20450;49.074;9.158;2023-02-08T08:16:05;28.75;27.50;21.00
34176;PMS7003;20450;49.074;9.158;2023-02-08T08:18:32;35.25;31.00;22.25
34176;PMS7003;20450;49.074;9.158;2023-02-08T08:21:00;33.00;31.50;20.75
34176;PMS7003;20450;49.074;9.158;2023-02-08T08:23:26;33.75;31.50;20.75
34176;PMS7003;20450;49.074;9.158;2023-02-08T08:25:55;32.75;30.75;21.50
34176;PMS7003;20450;49.074;9.158;2023-02-08T08:28:22;28.50;28.50;21.00
34176;PMS7003;20450;49.074;9.158;2023-02-08T08:30:49;31.50;29.00;20.50
34176;PMS7003;20450;49.074;9.158;2023-02-08T08:33:15;33.25;32.50;22.25
34176;PMS7003;20450;49.074;9.158;2023-02-08T08:35:42;28.50;25.75;18.50
34176;PMS7003;20450;49.074;9.158;2023-02-08T08:38:09;29.00;29.00;20.25
34176;PMS7003;20450;49.074;9.158;2023-02-08T08:40:36;38.50;32.50;22.25
34176;PMS7003;20450;49.074;9.158;2023-02-08T08:43:04;35.75;34.25;22.00
34176;PMS7003;20450;49.074;9.158;2023-02-08T08:45:31;34.25;30.00;23.00
34176;PMS7003;20450;49.074;9.158;2023-02-08T08:47:59;29.00;26.25;20.00
34176;PMS7003;20450;49.074;9.158;2023-02-08T08:50:26;28.75;28.75;22.00
34176;PMS7003;20450;49.074;9.158;2023-02-08T08:52:52;32.25;31.25;23.00
34176;PMS7003;20450;49.074;9.158;2023-02-08T08:55:19;29.25;28.75;21.75
34176;PMS7003;20450;49.074;9.158;2023-02-08T08:57:46;36.75;33.75;23.00
34176;PMS7003;20450;49.074;9.158;2023-02-08T09:00:15;30.75;30.00;21.25
34176;PMS7003;20450;49.074;9.158;2023-02-08T09:02:42;33.50;32.00;22.00
34176;PMS7003;20450;49.074;9.158;2023-02-08T09:05:09;36.50;33.00;23.00
34176;PMS7003;20450;49.074;9.158;2023-02-08T09:07:36;30.75;29.00;20.50
34176;PMS7003;20450;49.074;9.158;2023-02-08T09:10:03;34.25;31.25;22.00
34176;PMS7003;20450;49.074;9.158;2023-02-08T09:12:31;35.25;33.25;23.50
34176;PMS7003;20450;49.074;9.158;2023-02-08T09:14:58;36.00;33.75;23.00
34176;PMS7003;20450;49.074;9.158;2023-02-08T09:17:27;31.25;30.50;21.25
34176;PMS7003;20450;49.074;9.158;2023-02-08T09:19:54;34.00;32.50;22.75
34176;PMS7003;20450;49.074;9.158;2023-02-08T09:22:21;28.75;28.75;21.50
34176;PMS7003;20450;49.074;9.158;2023-02-08T09:24:48;32.50;31.50;22.75
34176;PMS7003;20450;49.074;9.158;2023-02-08T09:27:14;33.75;32.75;22.00
34176;PMS7003;20450;49.074;9.158;2023-02-08T09:29:41;28.75;28.25;20.00
34176;PMS7003;20450;49.074;9.158;2023-02-08T09:32:08;29.50;29.00;20.75
34176;PMS7003;20450;49.074;9.158;2023-02-08T09:34:37;28.00;26.00;20.00
34176;PMS7003;20450;49.074;9.158;2023-02-08T09:37:04;27.00;26.25;18.00
34176;PMS7003;20450;49.074;9.158;2023-02-08T09:39:31;29.25;24.50;19.00
34176;PMS7003;20450;49.074;9.158;2023-02-08T09:45:08;29.50;29.50;23.00
34176;PMS7003;20450;49.074;9.158;2023-02-08T09:47:53;29.75;28.00;20.25
34176;PMS7003;20450;49.074;9.158;2023-02-08T09:50:33;26.25;25.50;20.50
34176;PMS7003;20450;49.074;9.158;2023-02-08T09:53:10;28.75;27.00;19.75
34176;PMS7003;20450;49.074;9.158;2023-02-08T09:55:48;29.50;28.25;20.00
34176;PMS7003;20450;49.074;9.158;2023-02-08T09:58:26;52.75;45.00;28.00
34176;PMS7003;20450;49.074;9.158;2023-02-08T10:01:01;22.25;22.25;19.75
34176;PMS7003;20450;49.074;9.158;2023-02-08T10:03:33;29.50;27.25;19.50
34176;PMS7003;20450;49.074;9.158;2023-02-08T10:06:04;27.00;27.00;19.75
34176;PMS7003;20450;49.074;9.158;2023-02-08T10:08:35;30.50;29.00;21.00
34176;PMS7003;20450;49.074;9.158;2023-02-08T10:11:07;29.50;26.25;18.00
34176;PMS7003;20450;49.074;9.158;2023-02-08T10:14:06;26.67;24.67;18.00
34176;PMS7003;20450;49.074;9.158;2023-02-08T10:17:08;26.00;26.00;19.00
34176;PMS7003;20450;49.074;9.158;2023-02-08T10:20:23;26.67;24.33;18.00
34176;PMS7003;20450;49.074;9.158;2023-02-08T10:23:11;26.67;24.33;18.67
34176;PMS7003;20450;49.074;9.158;2023-02-08T10:26:02;23.75;23.50;17.00
34176;PMS7003;20450;49.074;9.158;2023-02-08T10:28:43;26.00;25.00;20.00
34176;PMS7003;20450;49.074;9.158;2023-02-08T10:31:34;22.50;21.75;16.75
34176;PMS7003;20450;49.074;9.158;2023-02-08T10:34:18;22.25;22.25;15.00
34176;PMS7003;20450;49.074;9.158;2023-02-08T10:36:56;21.50;19.25;13.75
34176;PMS7003;20450;49.074;9.158;2023-02-08T10:39:27;14.75;14.75;9.75
34176;PMS7003;20450;49.074;9.158;2023-02-08T10:42:01;19.00;19.00;14.50
34176;PMS7003;20450;49.074;9.158;2023-02-08T10:44:43;19.25;18.75;16.25
34176;PMS7003;20450;49.074;9.158;2023-02-08T10:47:32;24.50;20.25;15.00
34176;PMS7003;20450;49.074;9.158;2023-02-08T10:50:11;16.00;12.25;8.75
34176;PMS7003;20450;49.074;9.158;2023-02-08T10:52:50;20.50;20.50;14.25
34176;PMS7003;20450;49.074;9.158;2023-02-08T10:55:18;25.50;21.50;16.75
34176;PMS7003;20450;49.074;9.158;2023-02-08T10:57:47;20.75;17.25;14.00
34176;PMS7003;20450;49.074;9.158;2023-02-08T11:00:23;22.25;22.25;16.00
34176;PMS7003;20450;49.074;9.158;2023-02-08T11:02:54;22.25;20.75;14.50
34176;PMS7003;20450;49.074;9.158;2023-02-08T11:05:31;23.75;22.25;14.50
34176;PMS7003;20450;49.074;9.158;2023-02-08T11:08:04;20.33;19.00;12.67
34176;PMS7003;20450;49.074;9.158;2023-02-08T11:10:34;21.33;21.33;15.33
34176;PMS7003;20450;49.074;9.158;2023-02-08T11:13:03;17.50;16.75;12.75
34176;PMS7003;20450;49.074;9.158;2023-02-08T11:15:43;19.25;18.25;13.25
34176;PMS7003;20450;49.074;9.158;2023-02-08T11:18:20;18.00;17.50;13.50
34176;PMS7003;20450;49.074;9.158;2023-02-08T11:20:51;19.50;18.50;13.50
34176;PMS7003;20450;49.074;9.158;2023-02-08T11:23:23;16.00;14.75;11.75
34176;PMS7003;20450;49.074;9.158;2023-02-08T11:26:01;14.00;14.00;9.25
34176;PMS7003;20450;49.074;9.158;2023-02-08T11:28:42;11.75;11.75;8.75
34176;PMS7003;20450;49.074;9.158;2023-02-08T11:31:23;12.50;10.00;7.75
34176;PMS7003;20450;49.074;9.158;2023-02-08T11:33:57;17.25;13.50;9.50
34176;PMS7003;20450;49.074;9.158;2023-02-08T11:36:27;16.25;14.75;10.00
34176;PMS7003;20450;49.074;9.158;2023-02-08T11:38:59;10.25;10.25;8.25
34176;PMS7003;20450;49.074;9.158;2023-02-08T11:41:30;12.00;11.75;8.75
34176;PMS7003;20450;49.074;9.158;2023-02-08T11:43:58;12.50;12.50;8.25
34176;PMS7003;20450;49.074;9.158;2023-02-08T11:46:31;9.00;9.00;6.75
34176;PMS7003;20450;49.074;9.158;2023-02-08T11:49:02;11.75;11.75;9.00
34176;PMS7003;20450;49.074;9.158;2023-02-08T11:51:30;14.75;13.00;9.25
34176;PMS7003;20450;49.074;9.158;2023-02-08T11:54:00;10.75;10.25;8.50
34176;PMS7003;20450;49.074;9.158;2023-02-08T11:56:31;11.75;11.75;8.50
34176;PMS7003;20450;49.074;9.158;2023-02-08T11:59:01;14.50;14.00;10.50
34176;PMS7003;20450;49.074;9.158;2023-02-08T12:01:44;7.75;5.75;2.50
34176;PMS7003;20450;49.074;9.158;2023-02-08T12:04:12;10.00;10.00;8.75
34176;PMS7003;20450;49.074;9.158;2023-02-08T12:06:48;13.00;13.00;9.75
34176;PMS7003;20450;49.074;9.158;2023-02-08T12:09:41;15.50;14.25;11.50
34176;PMS7003;20450;49.074;9.158;2023-02-08T12:12:41;13.00;11.25;8.25
34176;PMS7003;20450;49.074;9.158;2023-02-08T12:15:39;11.25;10.00;7.50
34176;PMS7003;20450;49.074;9.158;2023-02-08T12:21:29;10.75;10.75;6.50
34176;PMS7003;20450;49.074;9.158;2023-02-08T12:24:07;13.00;13.00;10.25
34176;PMS7003;20450;49.074;9.158;2023-02-08T12:27:02;14.50;14.25;10.75
34176;PMS7003;20450;49.074;9.158;2023-02-08T12:29:49;13.00;13.00;9.75
34176;PMS7003;20450;49.074;9.158;2023-02-08T12:32:40;15.00;15.00;11.00
34176;PMS7003;20450;49.074;9.158;2023-02-08T12:38:45;14.25;13.75;10.75
34176;PMS7003;20450;49.074;9.158;2023-02-08T12:41:45;17.25;17.25;14.50
34176;PMS7003;20450;49.074;9.158;2023-02-08T12:44:35;12.75;12.75;10.50
34176;PMS7003;20450;49.074;9.158;2023-02-08T12:47:22;23.50;22.50;18.25
34176;PMS7003;20450;49.074;9.158;2023-02-08T12:50:30;20.00;20.00;15.25
34176;PMS7003;20450;49.074;9.158;2023-02-08T12:53:15;15.25;15.25;12.00
34176;PMS7003;20450;49.074;9.158;2023-02-08T12:55:49;17.25;14.00;10.50
34176;PMS7003;20450;49.074;9.158;2023-02-08T12:58:23;13.75;13.75;10.00
34176;PMS7003;20450;49.074;9.158;2023-02-08T13:00:55;7.25;7.00;4.25
34176;PMS7003;20450;49.074;9.158;2023-02-08T13:03:34;14.25;14.25;9.25
34176;PMS7003;20450;49.074;9.158;2023-02-08T13:06:12;14.25;14.25;10.25
34176;PMS7003;20450;49.074;9.158;2023-02-08T13:08:46;13.00;13.00;10.00
34176;PMS7003;20450;49.074;9.158;2023-02-08T13:11:23;14.50;13.75;10.75
34176;PMS7003;20450;49.074;9.158;2023-02-08T13:14:01;12.00;12.00;8.50
34176;PMS7003;20450;49.074;9.158;2023-02-08T13:16:33;22.50;20.50;16.50
34176;PMS7003;20450;49.074;9.158;2023-02-08T13:19:20;40.25;35.75;25.75
34176;PMS7003;20450;49.074;9.158;2023-02-08T13:21:54;27.25;26.25;21.25
34176;PMS7003;20450;49.074;9.158;2023-02-08T13:24:26;14.75;14.75;11.75
34176;PMS7003;20450;49.074;9.158;2023-02-08T13:26:59;15.25;13.75;9.75
34176;PMS7003;20450;49.074;9.158;2023-02-08T13:29:26;12.75;12.25;10.00
34176;PMS7003;20450;49.074;9.158;2023-02-08T13:31:55;16.25;15.00;11.00
34176;PMS7003;20450;49.074;9.158;2023-02-08T13:34:31;13.25;13.25;9.25
34176;PMS7003;20450;49.074;9.158;2023-02-08T13:37:05;14.50;14.50;11.00
34176;PMS7003;20450;49.074;9.158;2023-02-08T13:39:56;10.25;8.50;7.00
34176;PMS7003;20450;49.074;9.158;2023-02-08T13:42:31;16.00;15.75;11.50
34176;PMS7003;20450;49.074;9.158;2023-02-08T13:45:03;11.50;10.50;8.00
34176;PMS7003;20450;49.074;9.158;2023-02-08T13:47:35;14.25;13.75;10.75
34176;PMS7003;20450;49.074;9.158;2023-02-08T13:53:14;12.00;12.00;8.00
34176;PMS7003;20450;49.074;9.158;2023-02-08T14:01:32;13.75;13.75;10.50
34176;PMS7003;20450;49.074;9.158;2023-02-08T14:04:15;11.50;11.50;10.00
34176;PMS7003;20450;49.074;9.158;2023-02-08T14:07:00;14.00;13.25;10.00
34176;PMS7003;20450;49.074;9.158;2023-02-08T14:09:43;14.50;13.25;11.00
34176;PMS7003;20450;49.074;9.158;2023-02-08T14:12:25;7.75;7.75;6.75
34176;PMS7003;20450;49.074;9.158;2023-02-08T14:15:24;10.00;10.00;8.25
34176;PMS7003;20450;49.074;9.158;2023-02-08T14:17:55;13.25;12.25;9.75
34176;PMS7003;20450;49.074;9.158;2023-02-08T14:20:29;13.25;11.25;8.00
34176;PMS7003;20450;49.074;9.158;2023-02-08T14:23:03;13.00;13.00;10.00
34176;PMS7003;20450;49.074;9.158;2023-02-08T14:25:46;10.00;8.50;7.00
34176;PMS7003;20450;49.074;9.158;2023-02-08T14:28:26;9.25;8.50;7.25
34176;PMS7003;20450;49.074;9.158;2023-02-08T14:31:01;13.25;11.25;9.00
34176;PMS7003;20450;49.074;9.158;2023-02-08T14:33:34;7.75;7.75;6.50
34176;PMS7003;20450;49.074;9.158;2023-02-08T14:36:05;11.50;10.75;8.25
34176;PMS7003;20450;49.074;9.158;2023-02-08T14:38:54;11.75;9.00;6.00
34176;PMS7003;20450;49.074;9.158;2023-02-08T14:41:51;10.75;10.75;8.00
34176;PMS7003;20450;49.074;9.158;2023-02-08T14:50:49;10.25;10.25;7.00
34176;PMS7003;20450;49.074;9.158;2023-02-08T14:53:29;7.75;7.75;5.75
34176;PMS7003;20450;49.074;9.158;2023-02-08T14:56:12;7.00;7.00;6.00